Herstmonceux, United Kingdom
Current Conditions -  °F | °C
As of 3:20 PM on Thursday 18 Dec 2014 (Local Time) from EGKA Reporting Station
Haze Haze  
Wind Chill: 12°   Ceiling: 1100
Heat Index: 12°   Visibility: 3mi
Dew Point: 11°   Wind: 21mph
Humidity: 94%   Direction: 240°WSW
Pressure: 29.91"   Gusts: 32mph
Location:  50.89°N, 0.32°E
Report Text: EGKA 181520Z 24018G28KT 5000 HZ BKN011 12/11 Q1013
Loading
Personal Weather Stations






























Interactive Weather Map New forecast layout! Learn more

10-Day Weather Forecast

Advertisements
Track Severe Weather on mobile